createdAt,value
2023-05-08T00:00:20.524Z,9.57
2023-05-08T00:02:48.273Z,8.20
2023-05-08T00:05:16.055Z,9.07
2023-05-08T00:07:43.785Z,10.10
2023-05-08T00:10:11.997Z,11.88
2023-05-08T00:12:39.921Z,9.10
2023-05-08T00:15:07.888Z,9.25
2023-05-08T00:17:35.412Z,9.48
2023-05-08T00:20:03.243Z,9.35
2023-05-08T00:22:30.810Z,10.27
2023-05-08T00:24:58.346Z,10.73
2023-05-08T00:27:25.985Z,11.48
2023-05-08T00:29:53.518Z,9.80
2023-05-08T00:32:21.964Z,10.13
2023-05-08T00:34:49.631Z,12.32
2023-05-08T00:37:17.351Z,12.48
2023-05-08T00:39:44.979Z,10.13
2023-05-08T00:42:12.490Z,10.45
2023-05-08T00:44:41.126Z,10.25
2023-05-08T00:47:09.175Z,11.50
2023-05-08T00:49:36.862Z,10.32
2023-05-08T00:52:08.410Z,11.02
2023-05-08T00:54:36.923Z,12.02
2023-05-08T00:57:07.265Z,10.70
2023-05-08T00:59:36.213Z,10.60
2023-05-08T01:02:04.124Z,14.13
2023-05-08T01:04:32.343Z,9.70
2023-05-08T01:06:59.969Z,12.52
2023-05-08T01:09:27.792Z,10.57
2023-05-08T01:11:59.331Z,14.07
2023-05-08T01:14:32.887Z,12.57
2023-05-08T01:17:19.202Z,10.60
2023-05-08T01:20:10.913Z,11.77
2023-05-08T01:25:21.926Z,11.25
2023-05-08T01:28:08.467Z,11.05
2023-05-08T01:30:48.398Z,13.93
2023-05-08T01:33:23.416Z,13.95
2023-05-08T01:35:54.100Z,13.38
2023-05-08T01:38:31.820Z,12.30
2023-05-08T01:41:25.858Z,10.52
2023-05-08T01:44:11.616Z,11.48
2023-05-08T01:46:39.272Z,12.95
2023-05-08T01:49:12.979Z,15.35
2023-05-08T01:51:49.174Z,11.75
2023-05-08T01:54:20.677Z,12.73
2023-05-08T01:56:49.626Z,13.38
2023-05-08T01:59:20.357Z,12.90
2023-05-08T02:01:48.813Z,13.00
2023-05-08T02:04:17.726Z,13.05
2023-05-08T02:06:45.325Z,13.45
2023-05-08T02:09:13.538Z,14.45
2023-05-08T02:11:43.307Z,11.82
2023-05-08T02:14:12.542Z,13.38
2023-05-08T02:16:41.076Z,12.93
2023-05-08T02:19:09.181Z,13.75
2023-05-08T02:21:37.831Z,14.75
2023-05-08T02:24:05.560Z,13.13
2023-05-08T02:26:34.079Z,12.32
2023-05-08T02:29:03.189Z,12.77
2023-05-08T02:31:31.106Z,13.38
2023-05-08T02:33:59.435Z,12.45
2023-05-08T02:36:28.880Z,11.77
2023-05-08T02:38:59.556Z,13.30
2023-05-08T02:41:29.978Z,14.43
2023-05-08T02:43:57.848Z,15.82
2023-05-08T02:46:28.383Z,12.82
2023-05-08T02:48:59.541Z,15.60
2023-05-08T02:51:38.500Z,12.80
2023-05-08T02:54:11.361Z,12.73
2023-05-08T02:56:47.760Z,14.82
2023-05-08T02:59:23.238Z,11.55
2023-05-08T03:02:09.847Z,11.55
2023-05-08T03:04:41.331Z,11.00
2023-05-08T03:07:09.658Z,9.93
2023-05-08T03:09:48.301Z,12.60
2023-05-08T03:12:17.022Z,10.40
2023-05-08T03:14:53.706Z,10.05
2023-05-08T03:17:22.107Z,10.20
2023-05-08T03:19:53.080Z,11.70
2023-05-08T03:22:21.826Z,11.27
2023-05-08T03:24:50.219Z,10.25
2023-05-08T03:27:18.527Z,14.27
2023-05-08T03:29:46.734Z,10.90
2023-05-08T03:32:14.833Z,10.38
2023-05-08T03:34:42.855Z,12.75
2023-05-08T03:37:10.616Z,10.32
2023-05-08T03:39:38.462Z,9.27
2023-05-08T03:42:06.279Z,8.90
2023-05-08T03:44:34.294Z,10.65
2023-05-08T03:47:03.169Z,9.93
2023-05-08T03:49:31.860Z,8.70
2023-05-08T03:51:59.784Z,9.95
2023-05-08T03:54:28.427Z,9.02
2023-05-08T03:56:56.206Z,10.40
2023-05-08T03:59:39.441Z,9.57
2023-05-08T04:02:15.617Z,8.02
2023-05-08T04:04:44.574Z,12.23
2023-05-08T04:07:22.611Z,10.30
2023-05-08T04:10:00.720Z,10.00
2023-05-08T04:12:28.643Z,9.95
2023-05-08T04:15:05.566Z,8.98
2023-05-08T04:17:43.248Z,10.77
2023-05-08T04:20:15.344Z,11.40
2023-05-08T04:22:44.047Z,9.95
2023-05-08T04:25:12.895Z,10.63
2023-05-08T04:27:41.400Z,11.73
2023-05-08T04:30:09.968Z,9.60
2023-05-08T04:32:40.214Z,8.70
2023-05-08T04:35:09.232Z,10.30
2023-05-08T04:37:37.085Z,9.23
2023-05-08T04:40:05.254Z,11.07
2023-05-08T04:42:36.559Z,10.98
2023-05-08T04:45:04.502Z,10.43
2023-05-08T04:47:32.713Z,10.93
2023-05-08T04:50:02.849Z,10.90
2023-05-08T04:52:32.858Z,11.20
2023-05-08T04:55:00.564Z,10.82
2023-05-08T04:57:28.312Z,13.43
2023-05-08T04:59:55.871Z,10.10
2023-05-08T05:02:23.598Z,10.40
2023-05-08T05:04:51.817Z,11.48
2023-05-08T05:07:19.446Z,10.55
2023-05-08T05:09:47.037Z,10.15
2023-05-08T05:12:14.612Z,9.55
2023-05-08T05:14:42.299Z,9.95
2023-05-08T05:17:09.819Z,14.50
2023-05-08T05:19:37.472Z,11.10
2023-05-08T05:22:06.171Z,11.52
2023-05-08T05:24:36.051Z,11.82
2023-05-08T05:27:04.479Z,10.38
2023-05-08T05:29:32.695Z,11.75
2023-05-08T05:32:02.543Z,11.18
2023-05-08T05:34:30.180Z,10.38
2023-05-08T05:36:58.009Z,13.00
2023-05-08T05:39:25.801Z,13.02
2023-05-08T05:41:54.070Z,10.48
2023-05-08T05:44:21.634Z,9.15
2023-05-08T05:46:49.189Z,10.35
2023-05-08T05:49:17.973Z,9.75
2023-05-08T05:51:45.525Z,10.13
2023-05-08T05:54:14.438Z,11.50
2023-05-08T05:56:42.039Z,11.07
2023-05-08T05:59:10.126Z,11.15
2023-05-08T06:01:39.058Z,10.50
2023-05-08T06:04:06.847Z,10.52
2023-05-08T06:06:34.426Z,10.23
2023-05-08T06:09:01.962Z,11.07
2023-05-08T06:11:29.482Z,11.45
2023-05-08T06:13:57.122Z,10.85
2023-05-08T06:16:24.948Z,10.13
2023-05-08T06:18:52.550Z,11.18
2023-05-08T06:21:20.238Z,12.98
2023-05-08T06:23:47.847Z,10.48
2023-05-08T06:26:15.728Z,9.32
2023-05-08T06:28:43.315Z,11.65
2023-05-08T06:31:11.061Z,10.93
2023-05-08T06:33:38.980Z,9.93
2023-05-08T06:36:06.815Z,13.40
2023-05-08T06:38:34.370Z,13.75
2023-05-08T06:41:01.880Z,11.65
2023-05-08T06:43:30.504Z,9.85
2023-05-08T06:45:58.073Z,12.73
2023-05-08T06:48:28.930Z,9.50
2023-05-08T06:50:56.594Z,12.93
2023-05-08T06:53:24.249Z,10.93
2023-05-08T06:55:52.161Z,11.48
2023-05-08T06:58:19.683Z,10.38
2023-05-08T07:00:47.186Z,12.45
2023-05-08T07:03:15.030Z,10.13
2023-05-08T07:05:42.830Z,10.40
2023-05-08T07:08:10.363Z,9.02
2023-05-08T07:10:37.915Z,13.00
2023-05-08T07:13:05.460Z,11.43
2023-05-08T07:15:33.056Z,9.52
2023-05-08T07:18:00.833Z,9.55
2023-05-08T07:20:28.701Z,9.70
2023-05-08T07:22:56.426Z,13.35
2023-05-08T07:25:24.079Z,10.35
2023-05-08T07:27:51.818Z,10.88
2023-05-08T07:30:19.395Z,9.35
2023-05-08T07:32:47.346Z,8.70
2023-05-08T07:35:15.692Z,12.68
2023-05-08T07:37:43.489Z,9.52
2023-05-08T07:40:12.308Z,9.73
2023-05-08T07:42:44.111Z,10.13
2023-05-08T07:47:40.384Z,9.63
2023-05-08T07:50:08.029Z,9.63
2023-05-08T07:52:35.835Z,10.13
2023-05-08T07:55:03.402Z,9.98
2023-05-08T07:57:36.786Z,12.48
2023-05-08T08:00:04.943Z,10.18
2023-05-08T08:02:41.114Z,9.25
2023-05-08T08:05:09.037Z,11.32
2023-05-08T08:07:36.675Z,10.77
2023-05-08T08:10:04.612Z,12.80
2023-05-08T08:12:32.432Z,11.55
2023-05-08T08:14:59.991Z,9.20
2023-05-08T08:17:28.826Z,10.13
2023-05-08T08:19:57.079Z,9.65
2023-05-08T08:22:25.383Z,9.85
2023-05-08T08:24:55.103Z,11.48
2023-05-08T08:27:23.602Z,10.73
2023-05-08T08:29:58.491Z,10.88
2023-05-08T08:32:29.157Z,10.20
2023-05-08T08:34:56.664Z,12.68
2023-05-08T08:37:26.139Z,10.45
2023-05-08T08:39:53.962Z,13.05
2023-05-08T08:42:21.587Z,10.90
2023-05-08T08:44:49.139Z,14.60
2023-05-08T08:47:17.579Z,12.60
2023-05-08T08:49:51.247Z,11.70
2023-05-08T08:52:31.921Z,11.40
2023-05-08T08:55:03.494Z,10.55
2023-05-08T08:57:34.127Z,16.83
2023-05-08T09:00:05.367Z,14.07
2023-05-08T09:02:33.132Z,11.85
2023-05-08T09:05:00.909Z,10.88
2023-05-08T09:07:29.977Z,12.43
2023-05-08T09:09:57.751Z,11.20
2023-05-08T09:12:25.275Z,11.13
2023-05-08T09:14:53.028Z,11.52
2023-05-08T09:17:20.554Z,14.20
2023-05-08T09:19:49.276Z,11.52
2023-05-08T09:22:16.872Z,11.05
2023-05-08T09:24:57.333Z,15.07
2023-05-08T09:27:26.605Z,12.80
2023-05-08T09:30:04.486Z,15.85
2023-05-08T09:32:33.103Z,12.45
2023-05-08T09:35:18.794Z,17.67
2023-05-08T09:37:47.292Z,14.00
2023-05-08T09:40:16.023Z,13.30
2023-05-08T09:42:43.808Z,12.60
2023-05-08T09:45:12.015Z,15.32
2023-05-08T09:47:40.140Z,13.23
2023-05-08T09:50:11.778Z,13.23
2023-05-08T09:52:39.479Z,13.25
2023-05-08T09:55:10.944Z,13.40
2023-05-08T09:57:39.384Z,13.82
2023-05-08T10:00:08.872Z,16.50
2023-05-08T10:02:39.240Z,13.13
2023-05-08T10:05:23.684Z,14.85
2023-05-08T10:07:51.343Z,12.73
2023-05-08T10:10:28.936Z,13.90
2023-05-08T10:12:57.275Z,15.27
2023-05-08T10:15:25.916Z,15.43
2023-05-08T10:18:07.216Z,14.77
2023-05-08T10:20:35.641Z,13.38
2023-05-08T10:23:03.719Z,13.25
2023-05-08T10:25:33.504Z,13.18
2023-05-08T10:28:11.053Z,13.93
2023-05-08T10:30:39.619Z,15.73
2023-05-08T10:33:11.201Z,15.23
2023-05-08T10:35:39.076Z,16.73
2023-05-08T10:38:09.317Z,16.25
2023-05-08T10:40:37.781Z,13.32
2023-05-08T10:43:07.515Z,18.33
2023-05-08T10:45:37.425Z,15.25
2023-05-08T10:48:08.586Z,14.52
2023-05-08T10:50:56.365Z,14.75
2023-05-08T10:53:34.310Z,17.90
2023-05-08T10:56:04.094Z,15.68
2023-05-08T10:58:35.115Z,17.35
2023-05-08T11:01:08.964Z,15.80
2023-05-08T11:03:41.859Z,13.18
2023-05-08T11:06:09.830Z,15.60
2023-05-08T11:08:51.092Z,12.93
2023-05-08T11:11:21.900Z,13.10
2023-05-08T11:13:53.111Z,15.75
2023-05-08T11:16:40.780Z,13.18
2023-05-08T11:19:21.362Z,15.85
2023-05-08T11:22:18.300Z,14.73
2023-05-08T11:25:02.339Z,13.85
2023-05-08T11:27:37.093Z,14.25
2023-05-08T11:30:23.434Z,16.48
2023-05-08T11:33:14.274Z,14.80
2023-05-08T11:35:48.140Z,13.82
2023-05-08T11:38:18.712Z,12.05
2023-05-08T11:40:53.056Z,12.63
2023-05-08T11:43:26.203Z,10.98
2023-05-08T11:45:54.854Z,13.73
2023-05-08T11:48:22.377Z,12.15
2023-05-08T11:50:50.466Z,12.20
2023-05-08T11:53:17.996Z,12.52
2023-05-08T11:55:48.848Z,12.18
2023-05-08T11:58:17.160Z,13.07
2023-05-08T12:00:46.084Z,12.90
2023-05-08T12:03:14.558Z,15.32
2023-05-08T12:05:42.404Z,12.88
2023-05-08T12:08:10.534Z,13.57
2023-05-08T12:10:57.665Z,13.75
2023-05-08T12:13:29.259Z,14.75
2023-05-08T12:18:26.297Z,14.13
2023-05-08T12:20:54.755Z,13.43
2023-05-08T12:23:22.434Z,13.00
2023-05-08T12:25:55.789Z,16.25
2023-05-08T12:28:23.396Z,13.38
2023-05-08T12:30:51.108Z,14.77
2023-05-08T12:33:19.311Z,13.57
2023-05-08T12:35:46.962Z,15.73
2023-05-08T12:38:14.525Z,14.48
2023-05-08T12:40:46.003Z,15.45
2023-05-08T12:43:13.528Z,13.95
2023-05-08T12:45:42.300Z,12.50
2023-05-08T12:48:10.924Z,14.40
2023-05-08T12:50:40.113Z,16.38
2023-05-08T12:53:09.246Z,13.10
2023-05-08T12:55:38.180Z,14.77
2023-05-08T12:58:06.561Z,12.95
2023-05-08T13:00:40.467Z,13.77
2023-05-08T13:03:08.805Z,14.13
2023-05-08T13:05:37.871Z,13.18
2023-05-08T13:08:06.667Z,14.40
2023-05-08T13:10:50.894Z,17.40
2023-05-08T13:13:19.753Z,18.52
2023-05-08T13:15:47.636Z,16.15
2023-05-08T13:18:15.801Z,20.63
2023-05-08T13:20:43.658Z,18.40
2023-05-08T13:23:13.594Z,17.77
2023-05-08T13:25:41.689Z,17.98
2023-05-08T13:28:09.979Z,17.73
2023-05-08T13:30:37.758Z,18.15
2023-05-08T13:33:05.744Z,17.33
2023-05-08T13:35:34.099Z,18.95
2023-05-08T13:38:01.772Z,17.88
2023-05-08T13:40:29.755Z,19.73
2023-05-08T13:42:57.308Z,18.70
2023-05-08T13:45:24.980Z,20.00
2023-05-08T13:47:52.639Z,14.15
2023-05-08T13:50:21.707Z,15.18
2023-05-08T13:52:50.189Z,18.45
2023-05-08T13:55:21.817Z,16.73
2023-05-08T13:57:49.448Z,14.15
2023-05-08T14:00:17.438Z,13.80
2023-05-08T14:02:45.436Z,13.15
2023-05-08T14:05:13.234Z,13.38
2023-05-08T14:07:41.420Z,19.83
2023-05-08T14:10:09.189Z,12.07
2023-05-08T14:12:36.981Z,17.95
2023-05-08T14:15:05.405Z,11.57
2023-05-08T14:17:33.176Z,11.63
2023-05-08T14:20:00.833Z,10.68
2023-05-08T14:22:28.409Z,10.00
2023-05-08T14:24:56.113Z,9.70
2023-05-08T14:27:23.724Z,9.77
2023-05-08T14:29:53.686Z,12.05
2023-05-08T14:32:21.518Z,12.68
2023-05-08T14:34:49.405Z,12.40
2023-05-08T14:37:17.661Z,13.45
2023-05-08T14:39:46.548Z,14.85
2023-05-08T14:42:22.783Z,16.33
2023-05-08T14:44:51.610Z,15.98
2023-05-08T14:47:19.330Z,15.52
2023-05-08T14:49:46.898Z,14.07
2023-05-08T14:52:14.497Z,13.77
2023-05-08T14:54:42.570Z,16.48
2023-05-08T14:57:10.335Z,19.98
2023-05-08T14:59:43.549Z,15.73
2023-05-08T15:02:17.874Z,16.60
2023-05-08T15:04:46.053Z,14.48
2023-05-08T15:07:13.617Z,13.15
2023-05-08T15:09:41.353Z,16.00
2023-05-08T15:12:09.127Z,19.00
2023-05-08T15:14:36.731Z,16.85
2023-05-08T15:17:04.284Z,19.27
2023-05-08T15:19:31.826Z,15.77
2023-05-08T15:21:59.423Z,16.95
2023-05-08T15:24:27.000Z,15.90
2023-05-08T15:26:54.734Z,16.58
2023-05-08T15:29:22.291Z,18.80
2023-05-08T15:31:50.068Z,18.58
2023-05-08T15:34:17.602Z,20.25
2023-05-08T15:36:45.152Z,16.35
2023-05-08T15:39:12.923Z,16.05
2023-05-08T15:41:41.462Z,18.23
2023-05-08T15:44:08.953Z,17.23
2023-05-08T15:46:36.669Z,16.08
2023-05-08T15:49:04.450Z,18.13
2023-05-08T15:51:32.070Z,18.20
2023-05-08T15:53:59.622Z,16.98
2023-05-08T15:56:27.233Z,17.58
2023-05-08T15:58:54.860Z,22.00
2023-05-08T16:01:22.383Z,17.20
2023-05-08T16:03:50.138Z,18.48
2023-05-08T16:06:18.048Z,14.30
2023-05-08T16:08:45.573Z,18.23
2023-05-08T16:11:13.137Z,18.20
2023-05-08T16:13:40.796Z,17.23
2023-05-08T16:16:08.427Z,15.15
2023-05-08T16:18:36.023Z,16.88
2023-05-08T16:21:08.656Z,17.08
2023-05-08T16:23:36.507Z,20.65
2023-05-08T16:26:04.119Z,21.30
2023-05-08T16:28:31.626Z,20.58
2023-05-08T16:30:59.659Z,18.63
2023-05-08T16:33:27.219Z,17.98
2023-05-08T16:35:54.793Z,18.15
2023-05-08T16:38:22.389Z,18.48
2023-05-08T16:40:49.930Z,21.65
2023-05-08T16:43:17.464Z,18.33
2023-05-08T16:45:44.977Z,23.60
2023-05-08T16:48:12.528Z,18.15
2023-05-08T16:50:40.081Z,19.95
2023-05-08T16:53:07.650Z,30.20
2023-05-08T16:55:35.206Z,20.17
2023-05-08T16:58:04.506Z,24.77
2023-05-08T17:00:32.084Z,20.52
2023-05-08T17:02:59.725Z,20.77
2023-05-08T17:05:27.369Z,19.05
2023-05-08T17:07:55.212Z,17.35
2023-05-08T17:10:22.826Z,18.67
2023-05-08T17:12:51.779Z,17.98
2023-05-08T17:15:21.148Z,16.92
2023-05-08T17:17:49.442Z,19.95
2023-05-08T17:20:17.236Z,17.92
2023-05-08T17:22:44.774Z,20.95
2023-05-08T17:25:12.298Z,15.38
2023-05-08T17:27:39.824Z,19.30
2023-05-08T17:30:09.914Z,16.08
2023-05-08T17:32:37.469Z,25.48
2023-05-08T17:35:05.343Z,17.77
2023-05-08T17:37:32.875Z,14.15
2023-05-08T17:40:00.477Z,18.50
2023-05-08T17:42:27.998Z,15.88
2023-05-08T17:44:55.522Z,14.38
2023-05-08T17:47:23.163Z,17.02
2023-05-08T17:49:50.809Z,16.30
2023-05-08T17:52:18.317Z,15.80
2023-05-08T17:54:45.861Z,16.27
2023-05-08T17:57:13.640Z,17.35
2023-05-08T17:59:41.248Z,15.48
2023-05-08T18:02:08.990Z,17.42
2023-05-08T18:04:36.676Z,19.90
2023-05-08T18:07:04.187Z,16.27
2023-05-08T18:09:31.718Z,14.80
2023-05-08T18:12:02.398Z,15.18
2023-05-08T18:14:31.654Z,15.18
2023-05-08T18:16:59.548Z,16.50
2023-05-08T18:19:27.063Z,17.30
2023-05-08T18:21:54.613Z,16.27
2023-05-08T18:24:22.232Z,16.50
2023-05-08T18:26:51.926Z,15.00
2023-05-08T18:29:20.163Z,15.50
2023-05-08T18:31:48.046Z,16.10
2023-05-08T18:34:15.573Z,14.40
2023-05-08T18:36:43.392Z,20.15
2023-05-08T18:39:11.060Z,16.00
2023-05-08T18:41:38.606Z,17.80
2023-05-08T18:44:06.164Z,16.33
2023-05-08T18:46:33.751Z,17.77
2023-05-08T18:49:01.320Z,17.45
2023-05-08T18:51:28.893Z,19.23
2023-05-08T18:53:57.142Z,20.77
2023-05-08T18:56:24.978Z,21.08
2023-05-08T18:58:52.524Z,28.35
2023-05-08T19:01:21.042Z,19.77
2023-05-08T19:03:48.778Z,19.95
2023-05-08T19:06:16.871Z,19.00
2023-05-08T19:08:44.578Z,17.75
2023-05-08T19:11:12.265Z,14.32
2023-05-08T19:13:39.764Z,13.07
2023-05-08T19:16:07.403Z,14.98
2023-05-08T19:18:35.021Z,13.65
2023-05-08T19:21:02.933Z,15.55
2023-05-08T19:23:30.545Z,13.30
2023-05-08T19:25:58.071Z,12.13
2023-05-08T19:28:25.641Z,13.52
2023-05-08T19:30:53.198Z,17.85
2023-05-08T19:33:20.928Z,16.65
2023-05-08T19:35:48.969Z,18.63
2023-05-08T19:38:16.699Z,16.17
2023-05-08T19:40:56.612Z,16.80
2023-05-08T19:43:26.415Z,17.47
2023-05-08T19:45:56.525Z,16.95
2023-05-08T19:48:24.248Z,19.33
2023-05-08T19:50:54.678Z,18.75
2023-05-08T19:53:23.160Z,16.25
2023-05-08T19:55:50.915Z,19.23
2023-05-08T19:58:18.728Z,19.83
2023-05-08T20:00:50.852Z,22.15
2023-05-08T20:03:19.161Z,20.92
2023-05-08T20:05:46.990Z,21.25
2023-05-08T20:08:14.560Z,19.48
2023-05-08T20:10:42.351Z,19.48
2023-05-08T20:13:09.935Z,19.73
2023-05-08T20:15:37.776Z,20.70
2023-05-08T20:18:05.500Z,20.58
2023-05-08T20:20:34.692Z,20.83
2023-05-08T20:23:02.980Z,20.23
2023-05-08T20:25:30.797Z,20.15
2023-05-08T20:27:58.415Z,21.00
2023-05-08T20:30:26.182Z,22.40
2023-05-08T20:32:53.956Z,22.70
2023-05-08T20:35:21.732Z,21.40
2023-05-08T20:37:49.386Z,19.58
2023-05-08T20:40:17.023Z,19.50
2023-05-08T20:42:44.791Z,20.50
2023-05-08T20:45:12.533Z,20.08
2023-05-08T20:47:40.191Z,19.80
2023-05-08T20:50:08.044Z,23.73
2023-05-08T20:52:38.042Z,21.70
2023-05-08T20:55:06.989Z,20.30
2023-05-08T20:57:34.834Z,22.55
2023-05-08T21:00:02.394Z,22.70
2023-05-08T21:02:30.044Z,22.27
2023-05-08T21:04:57.697Z,25.10
2023-05-08T21:07:25.516Z,21.27
2023-05-08T21:09:53.210Z,21.42
2023-05-08T21:12:20.729Z,22.67
2023-05-08T21:14:48.303Z,20.55
2023-05-08T21:17:15.867Z,20.25
2023-05-08T21:19:43.391Z,22.13
2023-05-08T21:22:10.914Z,23.48
2023-05-08T21:24:43.064Z,22.05
2023-05-08T21:27:10.638Z,23.00
2023-05-08T21:29:38.178Z,23.60
2023-05-08T21:32:06.986Z,27.25
2023-05-08T21:34:35.822Z,24.30
2023-05-08T21:37:03.419Z,21.67
2023-05-08T21:39:30.934Z,23.40
2023-05-08T21:41:58.581Z,25.45
2023-05-08T21:44:26.415Z,22.85
2023-05-08T21:46:53.963Z,22.52
2023-05-08T21:49:21.481Z,24.30
2023-05-08T21:51:49.016Z,22.58
2023-05-08T21:54:16.664Z,24.83
2023-05-08T21:56:44.227Z,23.65
2023-05-08T21:59:11.760Z,22.50
2023-05-08T22:01:39.339Z,22.40
2023-05-08T22:04:07.004Z,21.88
2023-05-08T22:06:34.837Z,21.23
2023-05-08T22:09:02.812Z,20.48
2023-05-08T22:11:31.510Z,23.17
2023-05-08T22:13:59.025Z,20.45
2023-05-08T22:16:26.654Z,18.52
2023-05-08T22:18:54.364Z,21.40
2023-05-08T22:21:21.996Z,19.60
2023-05-08T22:23:49.509Z,18.73
2023-05-08T22:26:17.001Z,20.08
2023-05-08T22:28:44.522Z,18.70
2023-05-08T22:31:12.453Z,17.13
2023-05-08T22:33:40.282Z,17.65
2023-05-08T22:36:08.027Z,19.10
2023-05-08T22:38:35.571Z,20.70
2023-05-08T22:41:05.718Z,18.55
2023-05-08T22:43:33.996Z,16.67
2023-05-08T22:46:02.451Z,16.88
2023-05-08T22:48:30.285Z,17.00
2023-05-08T22:50:57.811Z,17.20
2023-05-08T22:53:25.366Z,16.67
2023-05-08T22:55:52.983Z,16.10
2023-05-08T22:58:20.531Z,17.05
2023-05-08T23:00:48.383Z,16.23
2023-05-08T23:03:16.467Z,14.23
2023-05-08T23:05:44.478Z,14.77
2023-05-08T23:08:12.042Z,14.77
2023-05-08T23:10:39.632Z,14.90
2023-05-08T23:13:07.419Z,15.68
2023-05-08T23:15:35.035Z,15.75
2023-05-08T23:18:02.810Z,14.80
2023-05-08T23:20:30.343Z,14.23
2023-05-08T23:22:57.925Z,15.98
2023-05-08T23:25:25.704Z,13.75
2023-05-08T23:27:53.211Z,16.33
2023-05-08T23:30:20.800Z,13.00
2023-05-08T23:32:48.327Z,15.90
2023-05-08T23:35:16.052Z,15.88
2023-05-08T23:37:43.840Z,14.63
2023-05-08T23:40:11.580Z,15.88
2023-05-08T23:42:39.759Z,16.38
2023-05-08T23:45:08.023Z,15.32
2023-05-08T23:47:35.586Z,16.45
2023-05-08T23:50:03.278Z,14.32
2023-05-08T23:52:30.869Z,15.43
2023-05-08T23:54:58.456Z,13.93
2023-05-08T23:57:26.011Z,15.18
2023-05-08T23:59:53.598Z,13.98
